Time;durP1;ratioP1;P1;durP2;ratioP2;P2;SDS_P1;SDS_P2;PMS_P1;PMS_P2;Temp;Humidity;BMP_temperature;BMP_pressure;BME280_temperature;BME280_humidity;BME280_pressure;Samples;Min_cycle;Max_cycle;Signal;HPM_P1;HPM_P2
2023/10/05 00:02:00;;;;;;;992.65;889.33;;;13.10;99.90;;;;;;4912978;29;20464;-95
2023/10/05 00:04:29;;;;;;;969.55;869.33;;;13.10;99.90;;;;;;4913123;29;20087;-94
2023/10/05 00:06:57;;;;;;;977.83;874.75;;;13.00;99.90;;;;;;4913138;29;20049;-94
2023/10/05 00:09:25;;;;;;;956.15;859.30;;;13.00;99.90;;;;;;4912970;29;20108;-95
2023/10/05 00:11:54;;;;;;;948.20;854.63;;;13.00;99.90;;;;;;4912625;29;20040;-95
2023/10/05 00:14:20;;;;;;;991.80;887.42;;;13.00;99.90;;;;;;4912359;29;20136;-94
2023/10/05 00:16:48;;;;;;;943.45;852.05;;;13.00;99.90;;;;;;4913035;29;20127;-96
2023/10/05 00:19:16;;;;;;;981.17;880.97;;;13.10;99.90;;;;;;4881447;29;20488;-95
2023/10/05 00:21:56;;;;;;;979.28;879.33;;;13.10;99.90;;;;;;4881297;29;20076;-95
2023/10/05 00:24:34;;;;;;;972.25;872.10;;;13.10;99.90;;;;;;4913478;29;20072;-95
2023/10/05 00:27:00;;;;;;;950.70;854.55;;;13.10;99.90;;;;;;4903586;29;20041;-95
2023/10/05 00:29:28;;;;;;;954.63;859.33;;;13.10;99.90;;;;;;4877924;29;20067;-94
2023/10/05 00:32:01;;;;;;;970.35;871.30;;;13.10;99.90;;;;;;4872436;29;20131;-95
2023/10/05 00:34:28;;;;;;;1069.55;922.80;;;13.10;99.90;;;;;;4896813;29;20041;-95
2023/10/05 00:36:57;;;;;;;979.60;878.35;;;13.40;99.90;;;;;;4912246;29;20055;-95
2023/10/05 00:39:24;;;;;;;986.33;886.03;;;13.10;99.90;;;;;;4880450;29;20048;-94
2023/10/05 00:44:32;;;;;;;950.17;855.53;;;13.10;99.90;;;;;;4887122;29;20124;-94
2023/10/05 00:47:00;;;;;;;965.03;867.88;;;13.00;99.90;;;;;;4911902;29;20050;-96
2023/10/05 00:49:41;;;;;;;941.75;849.00;;;13.00;99.90;;;;;;4881190;29;20127;-94
2023/10/05 00:52:15;;;;;;;994.17;890.42;;;13.00;99.90;;;;;;4912170;29;20055;-95
2023/10/05 00:54:45;;;;;;;980.83;880.90;;;13.00;99.90;;;;;;4911228;29;20404;-95
2023/10/05 00:57:14;;;;;;;941.25;848.67;;;13.00;99.90;;;;;;4881082;29;20053;-95
2023/10/05 00:59:43;;;;;;;988.00;886.22;;;13.00;99.90;;;;;;4911421;29;20495;-94
2023/10/05 01:02:21;;;;;;;961.03;865.03;;;13.00;99.90;;;;;;4912364;29;20075;-94
2023/10/05 01:14:51;;;;;;;940.15;848.63;;;13.00;99.90;;;;;;4895774;29;20061;-94
2023/10/05 01:17:21;;;;;;;1005.38;898.42;;;13.00;99.90;;;;;;4880747;29;20089;-95
2023/10/05 01:19:58;;;;;;;1016.90;907.78;;;13.00;99.90;;;;;;4884962;29;20044;-95
2023/10/05 01:22:36;;;;;;;995.70;891.50;;;13.00;99.90;;;;;;4911276;29;20036;-94
2023/10/05 01:25:08;;;;;;;999.42;894.33;;;13.00;99.90;;;;;;4911733;29;20048;-95
2023/10/05 01:27:36;;;;;;;1052.28;930.13;;;13.00;99.90;;;;;;4910564;29;20405;-95
2023/10/05 01:30:07;;;;;;;950.80;855.53;;;13.00;99.90;;;;;;4879663;29;20053;-95
2023/10/05 01:32:35;;;;;;;1007.65;900.15;;;13.00;99.90;;;;;;4880117;29;20062;-95
2023/10/05 01:35:06;;;;;;;1007.10;898.83;;;13.00;99.90;;;;;;4911420;29;20048;-96
2023/10/05 01:37:33;;;;;;;943.33;849.88;;;13.00;99.90;;;;;;4910710;29;20049;-94
2023/10/05 01:39:59;;;;;;;966.20;870.22;;;13.00;99.90;;;;;;4911424;29;20053;-95
2023/10/05 01:42:25;;;;;;;951.53;857.13;;;13.00;99.90;;;;;;4909834;29;20095;-95
2023/10/05 01:44:51;;;;;;;942.85;850.35;;;13.00;99.90;;;;;;4879564;29;20052;-95
2023/10/05 01:47:18;;;;;;;934.67;842.85;;;13.00;99.90;;;;;;4910643;29;20036;-94
2023/10/05 01:49:45;;;;;;;943.75;850.78;;;13.00;99.90;;;;;;4879312;29;20059;-95
2023/10/05 01:52:12;;;;;;;998.15;894.95;;;13.00;99.90;;;;;;4879527;29;20523;-94
2023/10/05 01:54:38;;;;;;;982.35;882.30;;;13.00;99.90;;;;;;4911119;29;20128;-95
2023/10/05 01:57:07;;;;;;;1014.92;907.28;;;12.90;99.90;;;;;;4910569;29;20098;-95
2023/10/05 01:59:34;;;;;;;1000.28;895.13;;;12.80;99.90;;;;;;4910549;29;20116;-95
2023/10/05 02:02:07;;;;;;;999.22;893.90;;;12.90;99.90;;;;;;4861439;29;20480;-95
2023/10/05 02:04:38;;;;;;;979.35;876.97;;;12.90;99.90;;;;;;4874646;29;20045;-95
2023/10/05 02:07:03;;;;;;;992.92;888.88;;;12.90;99.90;;;;;;4911343;29;20049;-95
2023/10/05 02:09:31;;;;;;;962.05;865.78;;;12.90;99.90;;;;;;4911125;29;20548;-95
2023/10/05 02:12:01;;;;;;;950.65;855.85;;;12.90;99.90;;;;;;4910075;29;20095;-95
2023/10/05 02:14:27;;;;;;;965.20;868.83;;;12.80;99.90;;;;;;4878782;29;20051;-95
2023/10/05 02:16:57;;;;;;;956.25;861.15;;;12.90;99.90;;;;;;4910794;29;20051;-95
2023/10/05 02:19:23;;;;;;;1006.25;900.50;;;13.00;99.90;;;;;;4880186;29;20052;-96
2023/10/05 02:21:54;;;;;;;947.60;854.38;;;13.00;99.90;;;;;;4879410;29;20091;-94
2023/10/05 02:24:22;;;;;;;940.75;848.22;;;13.00;99.90;;;;;;4910252;29;20092;-95
2023/10/05 02:29:26;;;;;;;1006.78;899.42;;;13.10;99.90;;;;;;4894696;29;20573;-95
2023/10/05 02:32:04;;;;;;;988.35;886.92;;;13.00;99.90;;;;;;4878900;29;20689;-96
2023/10/05 02:34:41;;;;;;;1006.72;902.90;;;13.10;99.90;;;;;;4867947;29;20801;-95
2023/10/05 02:37:12;;;;;;;983.63;883.78;;;13.10;99.90;;;;;;4910601;29;20402;-95
2023/10/05 02:39:39;;;;;;;984.55;883.40;;;13.10;99.90;;;;;;4879429;29;20048;-96
2023/10/05 02:42:07;;;;;;;953.38;860.75;;;13.10;99.90;;;;;;4911264;29;20083;-94
2023/10/05 02:44:35;;;;;;;971.03;875.58;;;13.10;99.90;;;;;;4910530;29;20501;-94
2023/10/05 02:47:08;;;;;;;958.00;865.45;;;13.10;99.90;;;;;;4879396;29;20116;-95
2023/10/05 02:49:35;;;;;;;;;;;13.10;99.90;;;;;;4911098;29;20149;-95
2023/10/05 02:52:04;;;;;;;945.00;853.85;;;13.10;99.90;;;;;;4879005;29;19923;-94
2023/10/05 02:54:32;;;;;;;957.55;863.17;;;13.10;99.90;;;;;;4910353;29;20496;-94
2023/10/05 02:56:58;;;;;;;995.83;893.10;;;13.10;99.90;;;;;;4910926;29;20116;-95
2023/10/05 02:59:26;;;;;;;994.78;893.55;;;13.10;99.90;;;;;;4909337;29;20044;-95
2023/10/05 03:01:54;;;;;;;936.35;846.42;;;13.10;99.90;;;;;;4891203;29;20080;-94
2023/10/05 03:04:21;;;;;;;985.80;885.97;;;13.00;99.90;;;;;;4904979;29;20449;-95
2023/10/05 03:06:52;;;;;;;1005.20;901.85;;;13.00;99.90;;;;;;4878702;29;20131;-94
2023/10/05 03:09:18;;;;;;;989.00;887.90;;;13.00;99.90;;;;;;4911322;29;20078;-95
2023/10/05 03:11:50;;;;;;;964.17;869.88;;;13.00;99.90;;;;;;4913578;29;20068;-95
2023/10/05 03:14:17;;;;;;;988.53;887.78;;;13.00;99.90;;;;;;4913590;29;20080;-95
2023/10/05 03:16:43;;;;;;;964.67;869.60;;;13.00;99.90;;;;;;4913928;29;20048;-95
2023/10/05 03:19:16;;;;;;;967.28;871.63;;;13.00;99.90;;;;;;4913430;29;20079;-95
2023/10/05 03:21:45;;;;;;;;;;;13.00;99.90;;;;;;4914024;29;20087;-95
2023/10/05 03:24:14;;;;;;;979.28;879.25;;;13.00;99.90;;;;;;4881578;29;19927;-95
2023/10/05 03:26:41;;;;;;;1017.22;907.97;;;13.10;99.90;;;;;;4913262;29;20400;-95
2023/10/05 03:29:11;;;;;;;974.95;877.38;;;13.10;99.90;;;;;;4882007;29;20842;-94
2023/10/05 03:31:43;;;;;;;1013.38;905.95;;;13.10;99.90;;;;;;4913753;29;20025;-95
2023/10/05 03:34:13;;;;;;;1022.70;915.03;;;13.10;99.90;;;;;;4913400;29;20119;-94
2023/10/05 03:36:38;;;;;;;971.53;873.45;;;13.20;99.90;;;;;;4913731;29;20135;-95
2023/10/05 03:39:07;;;;;;;979.28;881.20;;;13.20;99.90;;;;;;4881503;29;20500;-95
2023/10/05 03:41:38;;;;;;;979.90;880.70;;;13.20;99.90;;;;;;4881637;29;20127;-96
2023/10/05 03:44:07;;;;;;;964.60;868.75;;;13.30;99.90;;;;;;4882094;29;20386;-95
2023/10/05 03:46:34;;;;;;;964.60;870.35;;;13.30;99.90;;;;;;4913620;29;20055;-95
2023/10/05 03:49:06;;;;;;;959.17;865.03;;;13.30;99.90;;;;;;4869859;29;20040;-94
2023/10/05 03:51:32;;;;;;;971.25;875.58;;;13.50;99.90;;;;;;4881106;29;20127;-95
2023/10/05 03:53:58;;;;;;;981.08;883.00;;;13.40;99.90;;;;;;4881938;29;20500;-94
2023/10/05 03:56:29;;;;;;;1004.25;899.78;;;13.40;99.90;;;;;;4877403;29;20525;-95
2023/10/05 03:58:55;;;;;;;1014.38;909.78;;;13.50;99.90;;;;;;4886778;29;20077;-95
2023/10/05 04:01:22;;;;;;;996.50;894.15;;;13.40;99.90;;;;;;4897359;29;20045;-94
2023/10/05 04:03:49;;;;;;;1012.83;906.80;;;13.40;99.90;;;;;;4881297;29;20092;-96
2023/10/05 04:06:17;;;;;;;1009.88;906.05;;;13.40;99.90;;;;;;4881777;29;20047;-95
2023/10/05 04:08:48;;;;;;;997.55;896.30;;;13.30;99.90;;;;;;4912948;29;20048;-95
2023/10/05 04:11:16;;;;;;;1006.45;901.60;;;13.20;99.90;;;;;;4866728;29;20049;-95
2023/10/05 04:13:43;;;;;;;1018.33;909.08;;;13.20;99.90;;;;;;4875630;29;20053;-95
2023/10/05 04:16:17;;;;;;;1024.70;915.05;;;13.10;99.90;;;;;;4912126;29;20059;-95
2023/10/05 04:18:46;;;;;;;1026.38;918.83;;;13.10;99.90;;;;;;4880382;29;20052;-95
2023/10/05 04:21:15;;;;;;;991.67;891.10;;;13.10;99.90;;;;;;4912506;29;20449;-95
2023/10/05 04:23:45;;;;;;;1027.35;916.72;;;13.10;99.90;;;;;;4880544;29;20548;-95
2023/10/05 04:26:10;;;;;;;1018.30;911.17;;;13.10;99.90;;;;;;4884337;29;20036;-95
2023/10/05 04:28:41;;;;;;;1024.97;916.30;;;13.20;99.90;;;;;;4887980;29;20124;-95
2023/10/05 04:31:11;;;;;;;1020.13;913.15;;;13.20;99.90;;;;;;4881256;29;20072;-96
2023/10/05 04:33:39;;;;;;;979.58;880.03;;;13.20;99.90;;;;;;4912319;29;20481;-94
2023/10/05 04:36:08;;;;;;;1021.75;914.70;;;13.20;99.90;;;;;;4912424;29;20060;-95
2023/10/05 04:38:33;;;;;;;967.22;870.92;;;13.20;99.90;;;;;;4880405;29;20083;-95
2023/10/05 04:40:59;;;;;;;1012.03;905.65;;;13.20;99.90;;;;;;4913085;29;20087;-95
2023/10/05 04:43:25;;;;;;;1027.55;917.72;;;13.20;99.90;;;;;;4912018;29;20163;-95
2023/10/05 04:45:51;;;;;;;1042.60;929.83;;;13.20;99.90;;;;;;4880774;29;20059;-95
2023/10/05 04:48:18;;;;;;;1027.05;919.10;;;13.20;99.90;;;;;;4912144;29;20036;-95
2023/10/05 04:50:50;;;;;;;989.55;888.45;;;13.20;99.90;;;;;;4880941;29;20071;-95
2023/10/05 04:53:17;;;;;;;1016.60;912.67;;;13.20;99.90;;;;;;4880409;29;20127;-95
2023/10/05 04:55:45;;;;;;;1034.78;925.03;;;13.20;99.90;;;;;;4880039;29;20480;-95
2023/10/05 04:58:23;;;;;;;1001.20;898.55;;;13.20;99.90;;;;;;4880359;29;20055;-95
2023/10/05 05:00:54;;;;;;;994.92;894.35;;;13.20;99.90;;;;;;4880338;29;20048;-95
2023/10/05 05:06:00;;;;;;;1006.33;902.25;;;13.30;99.90;;;;;;4895899;29;20457;-94
2023/10/05 05:08:27;;;;;;;998.42;895.92;;;13.40;99.90;;;;;;4866943;29;20049;-95
2023/10/05 05:10:53;;;;;;;999.80;899.10;;;13.40;99.90;;;;;;4878240;29;20496;-96
2023/10/05 05:13:20;;;;;;;1027.53;918.95;;;13.40;99.90;;;;;;4880547;29;20139;-95
2023/10/05 05:15:55;;;;;;;1024.38;917.63;;;13.40;99.90;;;;;;4879926;29;20059;-95
2023/10/05 05:18:23;;;;;;;1017.80;912.90;;;13.30;99.90;;;;;;4880595;29;20048;-96
2023/10/05 05:20:53;;;;;;;1017.38;912.63;;;13.30;99.90;;;;;;4879722;29;20533;-94
2023/10/05 05:23:22;;;;;;;1016.58;910.28;;;13.30;99.90;;;;;;4880786;29;20053;-95
2023/10/05 05:25:51;;;;;;;980.13;882.70;;;13.30;99.90;;;;;;4879951;29;20044;-95
2023/10/05 05:28:17;;;;;;;1011.20;907.80;;;13.30;99.90;;;;;;4880502;29;20049;-95
2023/10/05 05:30:43;;;;;;;986.30;888.72;;;13.20;99.90;;;;;;4879727;29;20144;-95
2023/10/05 05:33:10;;;;;;;993.13;893.53;;;13.40;99.90;;;;;;4879579;29;20056;-94
2023/10/05 05:35:40;;;;;;;1026.65;919.90;;;13.40;99.90;;;;;;4879755;29;20036;-95
2023/10/05 05:38:09;;;;;;;1023.45;915.92;;;13.50;99.90;;;;;;4879839;29;20083;-95
2023/10/05 05:40:37;;;;;;;985.97;888.90;;;13.60;99.90;;;;;;4879060;29;20115;-95
2023/10/05 05:43:08;;;;;;;1008.67;904.40;;;13.60;99.90;;;;;;4879509;29;20099;-94
2023/10/05 05:45:35;;;;;;;1011.20;907.20;;;13.60;99.90;;;;;;4867602;29;20048;-95
2023/10/05 05:48:08;;;;;;;1011.22;906.17;;;13.60;99.90;;;;;;4879859;29;20402;-94
2023/10/05 05:50:39;;;;;;;961.25;869.55;;;13.60;99.90;;;;;;4879870;29;20466;-96
2023/10/05 05:53:07;;;;;;;969.63;874.50;;;13.50;99.90;;;;;;4879930;29;20468;-94
2023/10/05 05:55:33;;;;;;;997.67;896.75;;;13.60;99.90;;;;;;4880410;29;20060;-95
2023/10/05 05:58:00;;;;;;;950.10;857.80;;;13.60;99.90;;;;;;4879840;29;20055;-94
2023/10/05 06:00:28;;;;;;;1000.47;898.05;;;13.60;99.90;;;;;;4879447;29;20045;-95
2023/10/05 06:02:59;;;;;;;958.22;864.00;;;13.70;99.90;;;;;;4879526;29;20053;-94
2023/10/05 06:05:25;;;;;;;977.92;882.17;;;13.70;99.90;;;;;;4896297;29;20036;-95
2023/10/05 06:07:51;;;;;;;979.80;882.53;;;13.80;99.90;;;;;;4910537;29;20527;-94
2023/10/05 06:10:17;;;;;;;998.38;897.00;;;13.80;99.90;;;;;;4879534;29;20044;-95
2023/10/05 06:12:48;;;;;;;994.30;893.17;;;13.90;99.90;;;;;;4910568;29;20108;-95
2023/10/05 06:15:14;;;;;;;992.65;891.28;;;13.90;99.90;;;;;;4879942;29;20409;-95
2023/10/05 06:17:41;;;;;;;969.13;874.13;;;13.90;99.90;;;;;;4878574;29;20052;-95
2023/10/05 06:20:14;;;;;;;981.35;885.28;;;14.00;99.90;;;;;;4879497;29;20044;-95
2023/10/05 06:22:44;;;;;;;1021.13;913.47;;;14.00;99.90;;;;;;4867519;29;20072;-95
2023/10/05 06:25:14;;;;;;;987.38;890.15;;;14.00;99.90;;;;;;4911557;29;20076;-95
2023/10/05 06:27:43;;;;;;;1019.80;915.30;;;14.10;99.90;;;;;;4910621;29;20089;-96
2023/10/05 06:30:11;;;;;;;1001.22;897.85;;;14.10;99.90;;;;;;4911171;29;20064;-95
2023/10/05 06:32:37;;;;;;;983.47;886.15;;;14.10;99.90;;;;;;4879658;29;20072;-95
2023/10/05 06:35:08;;;;;;;1001.35;899.45;;;14.10;99.90;;;;;;4910236;29;20052;-95
2023/10/05 06:37:34;;;;;;;1001.22;900.47;;;14.20;99.90;;;;;;4911241;29;20076;-94
2023/10/05 06:40:00;;;;;;;1007.20;904.50;;;14.20;99.90;;;;;;4912007;29;20040;-95
2023/10/05 06:42:26;;;;;;;1028.45;920.17;;;14.20;99.90;;;;;;4910554;29;20063;-95
2023/10/05 06:44:52;;;;;;;1011.38;907.50;;;14.30;99.90;;;;;;4869709;29;20493;-95
2023/10/05 06:47:36;;;;;;;1019.03;912.90;;;14.30;99.90;;;;;;4898682;29;20052;-95
2023/10/05 06:50:08;;;;;;;1003.22;900.03;;;14.30;99.90;;;;;;4883164;29;20056;-95
2023/10/05 06:52:39;;;;;;;1099.72;968.95;;;14.30;99.90;;;;;;4882881;29;20417;-95
2023/10/05 06:55:07;;;;;;;1008.40;904.65;;;14.40;99.90;;;;;;4901847;29;20040;-95
2023/10/05 06:57:36;;;;;;;1010.72;906.55;;;14.40;99.90;;;;;;4882772;29;20096;-95
2023/10/05 07:00:12;;;;;;;1018.25;912.45;;;14.50;99.90;;;;;;4913065;29;20048;-95
2023/10/05 07:02:40;;;;;;;1022.75;916.08;;;14.50;99.90;;;;;;4882651;29;20059;-95
2023/10/05 07:05:06;;;;;;;1029.03;918.70;;;14.60;99.90;;;;;;4898355;29;20056;-95
2023/10/05 07:07:34;;;;;;;1033.78;923.30;;;14.60;99.90;;;;;;4882805;29;20048;-94
2023/10/05 07:10:06;;;;;;;1037.05;926.42;;;14.60;99.90;;;;;;4883696;29;20044;-96
2023/10/05 07:12:35;;;;;;;1037.38;927.88;;;14.70;99.90;;;;;;4919476;29;20051;-96
2023/10/05 07:15:01;;;;;;;1044.30;930.53;;;14.70;99.90;;;;;;4918403;29;20056;-96
2023/10/05 07:17:29;;;;;;;1032.88;923.33;;;14.80;99.90;;;;;;4918061;29;20390;-96
2023/10/05 07:19:55;;;;;;;1047.13;933.78;;;14.80;99.90;;;;;;4885892;29;20072;-96
2023/10/05 07:22:22;;;;;;;1019.22;911.20;;;14.90;99.90;;;;;;4903222;29;20057;-95
2023/10/05 07:24:50;;;;;;;1022.15;915.33;;;15.00;99.90;;;;;;4914068;29;20052;-94
2023/10/05 07:27:21;;;;;;;982.90;881.80;;;15.00;99.90;;;;;;4884329;29;20108;-96
2023/10/05 07:29:47;;;;;;;1090.47;942.97;;;15.10;99.90;;;;;;4881479;29;20100;-96
2023/10/05 07:32:16;;;;;;;1066.45;940.20;;;15.10;99.90;;;;;;4917515;29;20060;-96
2023/10/05 07:34:43;;;;;;;1030.88;919.45;;;15.10;99.90;;;;;;4887004;29;20131;-95
2023/10/05 07:37:11;;;;;;;968.75;870.65;;;15.10;99.90;;;;;;4882162;29;20132;-93
2023/10/05 07:39:41;;;;;;;1017.95;906.30;;;15.20;99.90;;;;;;4890507;29;20037;-95
2023/10/05 07:42:10;;;;;;;962.85;867.00;;;15.20;99.90;;;;;;4884795;29;20052;-95
2023/10/05 07:44:39;;;;;;;1009.15;902.88;;;15.20;99.90;;;;;;4848470;29;20057;-94
2023/10/05 07:47:06;;;;;;;1016.65;910.30;;;15.20;99.90;;;;;;4844091;29;20105;-96
2023/10/05 07:49:41;;;;;;;985.58;884.65;;;15.20;99.90;;;;;;4845097;29;20042;-96
2023/10/05 07:52:09;;;;;;;1000.13;893.65;;;15.30;99.90;;;;;;4836331;29;20044;-96
2023/10/05 07:54:40;;;;;;;961.75;868.50;;;15.30;99.90;;;;;;4841211;29;20049;-96
2023/10/05 07:57:09;;;;;;;994.25;891.25;;;15.20;99.90;;;;;;4840165;29;20037;-96
2023/10/05 07:59:36;;;;;;;1010.00;903.17;;;15.20;99.90;;;;;;4847586;29;20569;-96
2023/10/05 08:02:02;;;;;;;1021.38;909.70;;;15.20;99.90;;;;;;4841288;29;20052;-96
2023/10/05 08:04:32;;;;;;;973.95;877.47;;;15.20;99.90;;;;;;4864703;29;20071;-96
2023/10/05 08:06:59;;;;;;;984.83;883.75;;;15.10;99.90;;;;;;4847268;29;20464;-94
2023/10/05 08:09:26;;;;;;;980.05;879.35;;;15.10;99.90;;;;;;4840429;29;20037;-93
2023/10/05 08:11:53;;;;;;;1031.15;919.45;;;15.10;99.90;;;;;;4837972;29;20056;-90
2023/10/05 08:14:20;;;;;;;1051.53;935.45;;;15.00;99.90;;;;;;4846346;29;20517;-92
2023/10/05 08:16:48;;;;;;;925.25;837.10;;;15.00;99.90;;;;;;4841689;29;20053;-93
2023/10/05 08:19:15;;;;;;;1037.00;922.65;;;14.90;99.90;;;;;;4833587;29;20049;-93
2023/10/05 08:21:42;;;;;;;1013.35;906.92;;;14.90;99.90;;;;;;4844589;29;20057;-94
2023/10/05 08:24:08;;;;;;;1010.53;902.78;;;14.90;99.90;;;;;;4849590;29;20478;-94
2023/10/05 08:26:34;;;;;;;1014.17;906.95;;;14.90;99.90;;;;;;4851041;29;20048;-94
2023/10/05 08:29:01;;;;;;;994.13;886.70;;;14.90;99.90;;;;;;4861192;29;20077;-94
2023/10/05 08:31:28;;;;;;;973.63;872.25;;;14.90;99.90;;;;;;4838422;29;20064;-94
2023/10/05 08:33:54;;;;;;;986.60;884.42;;;14.90;99.90;;;;;;4847957;29;20148;-93
2023/10/05 08:36:20;;;;;;;937.35;846.00;;;15.00;99.90;;;;;;4845564;29;20053;-95
2023/10/05 08:38:48;;;;;;;958.53;861.22;;;14.90;99.90;;;;;;4845067;29;20045;-95
2023/10/05 08:41:26;;;;;;;994.95;891.13;;;15.00;99.90;;;;;;4848994;29;20056;-94
2023/10/05 08:43:54;;;;;;;1019.38;910.63;;;15.00;99.90;;;;;;4874700;29;20119;-94
2023/10/05 08:46:21;;;;;;;1064.13;944.40;;;15.00;99.90;;;;;;4884924;29;20111;-95
2023/10/05 08:48:47;;;;;;;974.17;872.40;;;15.00;99.90;;;;;;4880119;29;20064;-95
2023/10/05 08:51:14;;;;;;;944.13;849.38;;;15.00;99.90;;;;;;4885938;29;20044;-95
2023/10/05 08:53:48;;;;;;;1031.60;918.53;;;15.00;99.90;;;;;;4878061;29;20128;-94
2023/10/05 08:56:15;;;;;;;939.63;845.80;;;15.00;99.90;;;;;;4875854;29;20153;-94
2023/10/05 08:58:45;;;;;;;1007.90;900.72;;;15.10;99.90;;;;;;4885805;29;20119;-94
2023/10/05 09:01:24;;;;;;;999.72;892.50;;;15.10;99.90;;;;;;4910319;29;20520;-94
2023/10/05 09:04:01;;;;;;;1014.60;906.10;;;15.00;99.90;;;;;;4879876;29;20048;-94
2023/10/05 09:06:27;;;;;;;996.38;891.03;;;15.10;99.90;;;;;;4880900;29;20049;-90
2023/10/05 09:09:07;;;;;;;985.03;882.85;;;15.10;99.90;;;;;;4872024;29;20081;-96
2023/10/05 09:11:34;;;;;;;1053.95;915.70;;;15.10;99.90;;;;;;4871093;29;20048;-91
2023/10/05 09:14:12;;;;;;;910.72;823.78;;;15.20;99.90;;;;;;4877891;29;20049;-92
2023/10/05 09:16:45;;;;;;;976.58;876.95;;;15.40;99.90;;;;;;4868353;29;20055;-90
2023/10/05 09:19:13;;;;;;;;;;;15.50;99.90;;;;;;4893770;29;20051;-90
2023/10/05 09:21:42;;;;;;;1015.88;908.60;;;15.60;99.90;;;;;;4876909;29;20034;-92
2023/10/05 09:24:19;;;;;;;891.10;809.72;;;15.60;99.90;;;;;;4876658;29;20061;-90
2023/10/05 09:26:51;;;;;;;941.58;850.55;;;15.60;99.90;;;;;;4889836;29;20037;-92
2023/10/05 09:29:20;;;;;;;918.22;831.38;;;15.50;99.90;;;;;;4873586;29;20116;-92
2023/10/05 09:31:54;;;;;;;946.22;857.38;;;15.40;99.90;;;;;;4870494;29;20097;-91
2023/10/05 09:34:35;;;;;;;888.38;807.35;;;15.40;99.90;;;;;;4876021;29;20489;-92
2023/10/05 09:37:07;;;;;;;957.58;864.00;;;15.40;99.90;;;;;;4879175;29;20044;-92
2023/10/05 09:39:45;;;;;;;980.35;881.30;;;15.40;99.90;;;;;;4865150;29;20053;-91
2023/10/05 09:42:16;;;;;;;1004.25;897.28;;;15.40;99.90;;;;;;4877674;29;20045;-92
2023/10/05 09:44:50;;;;;;;931.03;840.25;;;15.50;99.90;;;;;;4871809;29;20151;-92
2023/10/05 09:47:25;;;;;;;891.45;810.08;;;15.60;99.90;;;;;;4875076;29;20089;-93
2023/10/05 09:50:10;;;;;;;906.35;820.55;;;15.60;99.90;;;;;;4872968;29;20044;-89
2023/10/05 09:52:38;;;;;;;941.65;850.22;;;15.70;99.90;;;;;;4881587;29;20132;-93
2023/10/05 09:55:17;;;;;;;921.95;834.70;;;15.80;99.90;;;;;;4894367;29;20128;-91
2023/10/05 09:57:53;;;;;;;939.42;850.33;;;15.90;99.90;;;;;;4908552;29;20040;-91
2023/10/05 10:02:58;;;;;;;904.47;820.97;;;16.00;99.90;;;;;;4884583;29;20099;-89
2023/10/05 10:05:30;;;;;;;903.60;819.28;;;16.10;99.90;;;;;;4902227;29;20044;-89
2023/10/05 10:08:07;;;;;;;908.75;822.35;;;16.20;99.90;;;;;;4888598;29;20138;-89
2023/10/05 10:10:36;;;;;;;885.95;803.75;;;16.20;99.90;;;;;;4875529;29;20045;-89
2023/10/05 10:13:11;;;;;;;914.40;827.65;;;16.30;99.90;;;;;;4871971;29;20048;-89
2023/10/05 10:15:39;;;;;;;930.40;839.83;;;16.40;99.90;;;;;;4872332;29;20116;-88
2023/10/05 10:18:14;;;;;;;935.53;845.92;;;16.50;99.90;;;;;;4872998;29;20103;-88
2023/10/05 10:20:45;;;;;;;940.20;849.55;;;16.50;99.90;;;;;;4909932;29;20044;-89
2023/10/05 10:23:25;;;;;;;937.05;848.58;;;16.60;99.90;;;;;;4875506;29;20052;-94
2023/10/05 10:26:06;;;;;;;948.40;856.05;;;16.70;99.90;;;;;;4882121;29;20127;-92
2023/10/05 10:28:57;;;;;;;954.22;860.75;;;16.80;99.90;;;;;;4869471;29;20053;-91
2023/10/05 10:31:30;;;;;;;929.85;842.47;;;16.80;99.90;;;;;;4867816;29;20104;-90
2023/10/05 10:34:20;;;;;;;841.40;764.00;;;16.90;99.90;;;;;;4878958;29;20461;-89
2023/10/05 10:36:52;;;;;;;911.05;823.35;;;16.90;99.90;;;;;;4886082;29;20052;-89
2023/10/05 10:39:23;;;;;;;958.80;864.97;;;17.00;99.90;;;;;;4889335;29;20045;-90
2023/10/05 10:42:03;;;;;;;913.72;826.58;;;17.20;99.90;;;;;;4907664;29;20069;-91
2023/10/05 10:44:51;;;;;;;;;;;;;;;;;;;;;
2023/10/05 10:47:22;;;;;;;719.65;654.42;;;17.50;99.90;;;;;;4911741;29;20097;-93
2023/10/05 10:50:47;;;;;;;;;;;;;;;;;;;;;
2023/10/05 10:53:16;;;;;;;751.17;683.50;;;17.60;99.90;;;;;;4883064;29;20540;-90
2023/10/05 10:59:36;;;;;;;789.47;718.67;;;17.70;99.90;;;;;;4848003;29;20131;-92
2023/10/05 11:02:38;;;;;;;827.47;751.92;;;17.80;99.90;;;;;;4873765;29;20129;-92
2023/10/05 11:11:24;;;;;;;861.60;778.17;;;17.50;99.90;;;;;;4830760;29;19935;-90
2023/10/05 11:14:15;;;;;;;;;;;;;;;;;;;;;
2023/10/05 11:16:44;;;;;;;877.67;792.08;;;17.10;99.90;;;;;;4892127;29;20140;-92
2023/10/05 11:20:23;;;;;;;;;;;;;;;;;;;;;
2023/10/05 11:30:18;;;;;;;;;;;17.10;99.90;;;;;;4882949;29;20049;-96
2023/10/05 11:33:05;;;;;;;757.13;689.80;;;17.10;99.90;;;;;;4876811;29;20316;-93
2023/10/05 11:39:59;;;;;;;754.88;688.88;;;17.30;99.90;;;;;;4868636;29;20055;-91
2023/10/05 11:42:35;;;;;;;734.00;672.42;;;17.40;99.90;;;;;;4865099;29;20104;-90
2023/10/05 11:45:18;;;;;;;828.53;750.95;;;17.50;99.90;;;;;;4884448;29;20057;-92
2023/10/05 11:47:56;;;;;;;759.15;693.78;;;17.70;99.90;;;;;;4880421;29;20470;-93
2023/10/05 11:51:02;;;;;;;;;;;;;;;;;;;;;
2023/10/05 11:54:19;;;;;;;;;;;;;;;;;;;;;
2023/10/05 12:01:33;;;;;;;;;;;;;;;;;;;;;
2023/10/05 12:08:28;;;;;;;854.58;774.15;;;17.10;99.90;;;;;;4828770;29;20042;-92
2023/10/05 12:11:51;;;;;;;;;;;;;;;;;;;;;
2023/10/05 12:18:32;;;;;;;;;;;;;;;;;;;;;
2023/10/05 12:21:59;;;;;;;894.22;806.38;;;17.20;99.90;;;;;;4824970;29;20057;-93
2023/10/05 12:25:07;;;;;;;857.33;775.47;;;17.20;99.90;;;;;;4757788;30;20059;-91
2023/10/05 12:59:54;;;;;;;815.72;735.60;;;17.60;99.90;;;;;;4900209;29;20048;-88
2023/10/05 13:02:19;;;;;;;852.65;768.00;;;17.20;99.90;;;;;;4902291;29;20416;-91
2023/10/05 13:04:52;;;;;;;819.55;740.78;;;17.00;99.90;;;;;;4894614;29;20045;-89
2023/10/05 13:07:31;;;;;;;;;;;;;;;;;;;;;
2023/10/05 13:10:25;;;;;;;;;;;;;;;;;;;;;
2023/10/05 13:13:21;;;;;;;1011.42;903.45;;;16.50;99.90;;;;;;4906614;29;20548;-89
2023/10/05 13:15:52;;;;;;;948.42;851.42;;;16.50;99.90;;;;;;4896574;29;20044;-91
2023/10/05 13:18:22;;;;;;;954.60;859.30;;;16.50;99.90;;;;;;4896041;29;20059;-91
2023/10/05 13:20:53;;;;;;;887.70;804.05;;;16.50;99.90;;;;;;4879486;29;20052;-92
2023/10/05 13:23:21;;;;;;;918.50;830.63;;;16.60;99.90;;;;;;4909560;29;20084;-90
2023/10/05 13:25:49;;;;;;;877.00;794.03;;;16.60;99.90;;;;;;4893722;29;20135;-87
2023/10/05 13:28:16;;;;;;;894.88;808.95;;;16.70;99.90;;;;;;4895987;29;20059;-88
2023/10/05 13:30:50;;;;;;;883.78;801.78;;;16.70;99.90;;;;;;4884185;29;20424;-89
2023/10/05 13:33:34;;;;;;;919.35;831.60;;;16.90;99.90;;;;;;4892414;29;20045;-87
2023/10/05 13:36:06;;;;;;;905.67;817.45;;;17.00;99.90;;;;;;4894172;29;20052;-89
2023/10/05 13:39:14;;;;;;;930.53;836.77;;;17.00;99.90;;;;;;4884304;29;20044;-89
2023/10/05 13:41:49;;;;;;;963.22;864.20;;;17.10;99.90;;;;;;4902863;29;20048;-90
2023/10/05 13:44:49;;;;;;;;;;;;;;;;;;;;;
2023/10/05 13:47:36;;;;;;;1029.38;903.22;;;16.90;99.90;;;;;;4870838;29;20492;-87
2023/10/05 13:50:07;;;;;;;1059.40;920.60;;;16.90;99.90;;;;;;4887366;29;20051;-89
2023/10/05 13:52:44;;;;;;;987.88;879.90;;;16.80;99.90;;;;;;4891135;29;20481;-90
2023/10/05 13:55:12;;;;;;;1009.53;893.47;;;16.70;99.90;;;;;;4891379;29;20057;-89
2023/10/05 13:57:38;;;;;;;1058.80;912.47;;;16.60;99.90;;;;;;4894633;29;20135;-88
2023/10/05 14:01:00;;;;;;;;;;;;;;;;;;;;;
2023/10/05 14:06:28;;;;;;;1076.53;911.28;;;16.60;99.90;;;;;;4891965;29;20091;-89
2023/10/05 14:09:07;;;;;;;;;;;;;;;;;;;;;
2023/10/05 14:11:49;;;;;;;1108.35;938.72;;;16.70;99.90;;;;;;4904915;29;20056;-90
2023/10/05 14:15:37;;;;;;;1079.35;918.70;;;16.80;99.90;;;;;;4903669;29;20516;-90
2023/10/05 14:17:40;;;;;;;988.38;881.35;;;16.80;99.90;;;;;;4898144;29;20059;-88
2023/10/05 14:20:22;;;;;;;;;;;;;;;;;;;;;
2023/10/05 14:23:19;;;;;;;;;;;;;;;;;;;;;